Time;durP1;ratioP1;P1;durP2;ratioP2;P2;SDS_P1;SDS_P2;PMS_P1;PMS_P2;Temp;Humidity;BMP_temperature;BMP_pressure;BME280_temperature;BME280_humidity;BME280_pressure;Samples;Min_cycle;Max_cycle;Signal;HPM_P1;HPM_P2
2021/06/25 00:02:23;;;;;;;2.33;2.17;;;15.00;99.90;;;;;;5031504;28;20191;-59
2021/06/25 00:04:49;;;;;;;3.33;2.07;;;15.00;99.90;;;;;;5027587;28;20175;-59
2021/06/25 00:07:15;;;;;;;2.50;2.30;;;15.00;99.90;;;;;;5028953;28;20220;-59
2021/06/25 00:09:41;;;;;;;2.23;2.10;;;15.00;99.90;;;;;;5031688;28;21793;-60
2021/06/25 00:12:08;;;;;;;3.60;2.73;;;15.00;99.90;;;;;;5030761;28;20172;-61
2021/06/25 00:14:35;;;;;;;2.20;2.00;;;15.00;99.90;;;;;;5029984;28;20251;-60
2021/06/25 00:17:02;;;;;;;3.80;2.37;;;15.10;99.90;;;;;;5028458;28;20532;-60
2021/06/25 00:19:28;;;;;;;2.67;2.40;;;15.00;99.90;;;;;;5029448;28;20442;-59
2021/06/25 00:21:54;;;;;;;2.80;2.20;;;15.10;99.90;;;;;;5030085;28;20476;-61
2021/06/25 00:24:20;;;;;;;2.20;2.10;;;15.10;99.90;;;;;;5028331;28;20897;-61
2021/06/25 00:26:46;;;;;;;2.50;2.30;;;15.10;99.90;;;;;;5027382;28;20168;-60
2021/06/25 00:29:11;;;;;;;2.60;2.40;;;15.10;99.90;;;;;;5031094;28;20265;-59
2021/06/25 00:31:37;;;;;;;2.30;2.20;;;15.00;99.90;;;;;;5028055;28;20183;-60
2021/06/25 00:34:03;;;;;;;2.40;2.20;;;15.00;99.90;;;;;;5028806;28;20572;-60
2021/06/25 00:36:29;;;;;;;4.00;2.40;;;15.00;99.90;;;;;;5026484;28;20184;-60
2021/06/25 00:38:55;;;;;;;9.33;2.60;;;15.00;99.90;;;;;;5028017;28;20456;-59
2021/06/25 00:41:20;;;;;;;3.37;1.90;;;15.00;99.90;;;;;;5026925;28;21688;-60
2021/06/25 00:43:46;;;;;;;2.23;2.03;;;15.00;99.90;;;;;;5030668;28;20176;-59
2021/06/25 00:46:12;;;;;;;3.17;2.43;;;15.00;99.90;;;;;;5030367;28;20180;-59
2021/06/25 00:48:38;;;;;;;4.60;2.57;;;15.00;99.90;;;;;;5027614;28;20200;-59
2021/06/25 00:51:04;;;;;;;2.50;2.30;;;15.00;99.90;;;;;;5030066;28;20237;-60
2021/06/25 00:53:30;;;;;;;2.13;2.03;;;15.00;99.90;;;;;;5031416;28;20829;-59
2021/06/25 00:55:56;;;;;;;11.40;2.57;;;14.90;99.90;;;;;;5036480;28;20176;-62
2021/06/25 00:58:21;;;;;;;2.90;2.70;;;15.00;99.90;;;;;;5046841;28;20632;-60
2021/06/25 01:00:47;;;;;;;2.60;2.40;;;15.00;99.90;;;;;;5047182;28;20175;-61
2021/06/25 01:03:14;;;;;;;2.30;2.10;;;14.90;99.90;;;;;;5048527;28;20700;-61
2021/06/25 01:05:42;;;;;;;2.60;2.40;;;14.90;99.90;;;;;;5045246;28;20457;-60
2021/06/25 01:08:09;;;;;;;2.30;2.20;;;14.90;99.90;;;;;;5046001;28;20473;-61
2021/06/25 01:10:40;;;;;;;2.60;2.40;;;14.90;99.90;;;;;;5046781;28;20438;-61
2021/06/25 01:13:06;;;;;;;2.40;2.03;;;14.90;99.90;;;;;;5042532;28;20423;-61
2021/06/25 01:15:32;;;;;;;2.43;2.23;;;14.90;99.90;;;;;;5047422;28;20430;-60
2021/06/25 01:17:58;;;;;;;2.77;2.57;;;14.90;99.90;;;;;;5048988;28;20471;-61
2021/06/25 01:20:27;;;;;;;3.03;2.83;;;14.90;99.90;;;;;;5047420;28;20239;-64
2021/06/25 01:22:52;;;;;;;2.70;2.33;;;14.90;99.90;;;;;;5037464;28;20682;-60
2021/06/25 01:25:30;;;;;;;3.47;2.50;;;14.90;99.90;;;;;;5028591;28;20415;-60
2021/06/25 01:28:01;;;;;;;2.40;2.13;;;14.90;99.90;;;;;;5029856;28;20654;-61
2021/06/25 01:30:30;;;;;;;2.70;2.50;;;14.90;99.90;;;;;;5029605;28;20433;-60
2021/06/25 01:32:57;;;;;;;3.80;2.70;;;14.90;99.90;;;;;;5024046;28;20867;-59
2021/06/25 01:35:23;;;;;;;3.30;2.90;;;14.90;99.90;;;;;;5028546;28;20435;-60
2021/06/25 01:37:51;;;;;;;4.10;2.53;;;14.80;99.90;;;;;;5028916;28;20523;-60
2021/06/25 01:40:19;;;;;;;2.60;2.40;;;14.80;99.90;;;;;;5023971;28;20180;-60
2021/06/25 01:42:46;;;;;;;2.60;2.40;;;14.80;99.90;;;;;;5030334;28;20426;-60
2021/06/25 01:45:21;;;;;;;3.10;2.73;;;14.80;99.90;;;;;;5030975;28;20473;-60
2021/06/25 01:47:48;;;;;;;4.67;2.60;;;14.90;99.90;;;;;;5027653;28;21054;-60
2021/06/25 01:50:19;;;;;;;2.90;2.70;;;14.80;99.90;;;;;;5028219;28;20441;-61
2021/06/25 01:52:49;;;;;;;3.63;3.00;;;14.80;99.90;;;;;;5029285;28;20515;-60
2021/06/25 01:55:15;;;;;;;3.97;2.80;;;14.80;99.90;;;;;;5024655;28;20754;-60
2021/06/25 01:57:42;;;;;;;2.50;2.30;;;14.90;99.90;;;;;;5024925;28;21173;-60
2021/06/25 02:00:09;;;;;;;4.20;2.80;;;14.80;99.90;;;;;;5022085;28;20435;-60
2021/06/25 02:02:35;;;;;;;2.83;2.60;;;14.80;99.90;;;;;;5021516;28;20431;-61
2021/06/25 02:05:01;;;;;;;4.50;2.70;;;14.80;99.90;;;;;;5026657;28;20790;-60
2021/06/25 02:07:26;;;;;;;4.67;2.60;;;14.80;99.90;;;;;;5020557;28;20180;-61
2021/06/25 02:09:52;;;;;;;3.13;2.57;;;14.80;99.90;;;;;;5027842;28;20422;-61
2021/06/25 02:12:18;;;;;;;3.30;3.00;;;14.90;99.90;;;;;;5026972;28;20175;-61
2021/06/25 02:14:43;;;;;;;3.17;2.87;;;14.80;99.90;;;;;;5030923;28;20171;-63
2021/06/25 02:17:09;;;;;;;7.23;3.70;;;14.80;99.90;;;;;;5028098;28;20176;-62
2021/06/25 02:19:35;;;;;;;4.47;3.10;;;14.80;99.90;;;;;;5028072;28;20196;-61
2021/06/25 02:22:02;;;;;;;4.17;3.77;;;14.80;99.90;;;;;;5022166;28;20186;-61
2021/06/25 02:24:29;;;;;;;5.57;3.93;;;14.80;99.90;;;;;;5023758;28;20176;-61
2021/06/25 02:26:54;;;;;;;6.87;3.50;;;14.80;99.90;;;;;;5013548;28;20426;-61
2021/06/25 02:29:21;;;;;;;5.10;4.10;;;14.90;99.90;;;;;;5023386;28;20469;-61
2021/06/25 02:31:46;;;;;;;5.27;4.20;;;14.90;99.90;;;;;;5027424;28;20667;-61
2021/06/25 02:34:12;;;;;;;6.53;4.23;;;14.80;99.90;;;;;;5029510;28;20418;-61
2021/06/25 02:36:37;;;;;;;5.50;4.90;;;14.80;99.90;;;;;;5031029;28;20168;-61
2021/06/25 02:39:04;;;;;;;7.23;5.10;;;14.80;99.90;;;;;;5021558;28;20282;-61
2021/06/25 02:41:29;;;;;;;8.50;5.50;;;14.70;99.90;;;;;;5027149;28;20183;-61
2021/06/25 02:43:55;;;;;;;6.23;4.87;;;14.70;99.90;;;;;;5027844;28;20430;-61
2021/06/25 02:46:21;;;;;;;9.40;5.27;;;14.60;99.90;;;;;;5020585;28;20169;-61
2021/06/25 02:48:46;;;;;;;6.07;4.80;;;14.60;99.90;;;;;;5029818;28;20286;-61
2021/06/25 02:51:12;;;;;;;7.00;5.03;;;14.60;99.90;;;;;;5026951;28;20176;-61
2021/06/25 02:53:40;;;;;;;10.13;5.47;;;14.60;99.90;;;;;;5024819;28;20179;-62
2021/06/25 02:56:06;;;;;;;8.60;5.80;;;14.60;99.90;;;;;;5015734;28;20403;-61
2021/06/25 02:58:32;;;;;;;9.83;5.77;;;14.50;99.90;;;;;;5028756;28;20488;-61
2021/06/25 03:00:57;;;;;;;8.33;6.20;;;14.50;99.90;;;;;;5029095;28;20172;-61
2021/06/25 03:03:23;;;;;;;10.60;5.50;;;14.50;99.90;;;;;;5027648;28;20245;-61
2021/06/25 03:05:50;;;;;;;8.10;5.10;;;14.50;99.90;;;;;;5026729;28;20176;-61
2021/06/25 03:08:16;;;;;;;8.60;6.73;;;14.50;99.90;;;;;;5023213;28;20303;-61
2021/06/25 03:10:43;;;;;;;9.00;5.70;;;14.50;99.90;;;;;;5025464;28;20530;-61
2021/06/25 03:13:09;;;;;;;8.00;6.03;;;14.50;99.90;;;;;;5027225;28;20549;-61
2021/06/25 03:15:35;;;;;;;7.47;5.67;;;14.50;99.90;;;;;;5028627;28;20398;-61
2021/06/25 03:18:01;;;;;;;8.60;6.07;;;14.50;99.90;;;;;;5027788;28;20795;-61
2021/06/25 03:20:27;;;;;;;8.17;6.10;;;14.60;99.90;;;;;;5023957;28;20525;-61
2021/06/25 03:22:52;;;;;;;8.93;5.70;;;14.60;99.90;;;;;;5022919;28;20192;-61
2021/06/25 03:25:18;;;;;;;10.10;6.37;;;14.60;99.90;;;;;;5026849;28;20182;-61
2021/06/25 03:27:44;;;;;;;8.67;6.47;;;14.60;99.90;;;;;;5029179;28;20213;-60
2021/06/25 03:30:10;;;;;;;8.00;5.80;;;14.60;99.90;;;;;;5025165;28;20198;-61
2021/06/25 03:32:36;;;;;;;8.00;5.87;;;14.60;99.90;;;;;;5027736;28;20247;-61
2021/06/25 03:35:04;;;;;;;8.97;7.07;;;14.60;99.90;;;;;;5026934;28;20430;-61
2021/06/25 03:37:29;;;;;;;9.60;6.20;;;14.50;99.90;;;;;;5027366;28;20798;-60
2021/06/25 03:39:55;;;;;;;11.43;6.70;;;14.60;99.90;;;;;;5019030;28;20434;-61
2021/06/25 03:42:21;;;;;;;10.73;6.63;;;14.60;99.90;;;;;;5023241;28;20691;-61
2021/06/25 03:44:46;;;;;;;8.07;6.50;;;14.60;99.90;;;;;;5027033;28;20651;-61
2021/06/25 03:47:12;;;;;;;11.20;6.50;;;14.60;99.90;;;;;;5022610;28;20183;-61
2021/06/25 03:49:38;;;;;;;9.33;6.43;;;14.60;99.90;;;;;;5026455;28;20366;-61
2021/06/25 03:52:04;;;;;;;9.90;6.90;;;14.60;99.90;;;;;;5015226;28;20174;-61
2021/06/25 03:54:30;;;;;;;9.67;6.70;;;14.60;99.90;;;;;;5024352;28;20438;-62
2021/06/25 03:56:56;;;;;;;10.03;7.50;;;14.60;99.90;;;;;;5026197;28;20442;-61
2021/06/25 03:59:21;;;;;;;8.80;7.27;;;14.60;99.90;;;;;;5021694;28;20564;-61
2021/06/25 04:01:48;;;;;;;11.33;6.57;;;14.60;99.90;;;;;;5018713;28;20698;-62
2021/06/25 04:04:13;;;;;;;8.63;6.40;;;14.60;99.90;;;;;;5017389;28;20198;-61
2021/06/25 04:06:39;;;;;;;11.23;6.60;;;14.60;99.90;;;;;;5023190;28;20430;-61
2021/06/25 04:09:05;;;;;;;6.83;5.30;;;14.50;99.90;;;;;;5032654;28;20225;-63
2021/06/25 04:11:31;;;;;;;6.60;5.27;;;14.50;99.90;;;;;;5022532;28;20427;-62
2021/06/25 04:13:57;;;;;;;58.23;26.17;;;14.50;99.90;;;;;;5024596;28;20194;-63
2021/06/25 04:16:23;;;;;;;6.90;5.30;;;14.50;99.90;;;;;;5021967;28;20430;-61
2021/06/25 04:18:49;;;;;;;5.70;4.90;;;14.50;99.90;;;;;;5023258;28;20226;-61
2021/06/25 04:21:15;;;;;;;4.10;3.57;;;14.50;99.90;;;;;;5022498;28;20834;-61
2021/06/25 04:23:41;;;;;;;4.60;3.70;;;14.50;99.90;;;;;;5021124;28;20434;-61
2021/06/25 04:26:06;;;;;;;6.10;4.10;;;14.50;99.90;;;;;;5018702;28;20176;-62
2021/06/25 04:28:32;;;;;;;4.30;3.90;;;14.50;99.90;;;;;;5023302;28;20316;-61
2021/06/25 04:30:59;;;;;;;4.23;3.83;;;14.50;99.90;;;;;;5022907;28;20172;-61
2021/06/25 04:33:24;;;;;;;4.90;3.93;;;14.50;99.90;;;;;;5020148;28;20171;-61
2021/06/25 04:35:53;;;;;;;4.20;3.73;;;14.50;99.90;;;;;;5011781;28;21054;-61
2021/06/25 04:38:18;;;;;;;3.90;3.53;;;14.50;99.90;;;;;;5015903;28;20189;-61
2021/06/25 04:40:44;;;;;;;4.13;3.60;;;14.50;99.90;;;;;;5022819;28;20433;-61
2021/06/25 04:43:14;;;;;;;6.97;4.87;;;14.50;99.90;;;;;;5023920;28;20175;-62
2021/06/25 04:45:40;;;;;;;5.77;4.37;;;14.50;99.90;;;;;;5020606;28;20531;-61
2021/06/25 04:48:09;;;;;;;4.90;3.90;;;14.50;99.90;;;;;;5027962;28;20517;-62
2021/06/25 04:50:35;;;;;;;5.53;4.10;;;14.50;99.90;;;;;;5021464;28;20165;-62
2021/06/25 04:53:01;;;;;;;6.40;4.47;;;14.50;99.90;;;;;;5028550;28;20541;-60
2021/06/25 04:55:27;;;;;;;6.37;4.77;;;14.50;99.90;;;;;;5023310;28;20758;-61
2021/06/25 04:57:54;;;;;;;5.03;4.27;;;14.50;99.90;;;;;;5026731;28;20230;-61
2021/06/25 05:00:21;;;;;;;5.83;4.63;;;14.50;99.90;;;;;;5015560;28;20565;-62
2021/06/25 05:02:47;;;;;;;6.13;4.47;;;14.50;99.90;;;;;;5012033;28;20434;-62
2021/06/25 05:05:14;;;;;;;10.47;5.27;;;14.60;99.90;;;;;;5022551;28;20781;-62
2021/06/25 05:07:39;;;;;;;6.23;4.80;;;14.60;99.90;;;;;;5022389;28;20572;-61
2021/06/25 05:10:05;;;;;;;6.93;5.37;;;14.60;99.90;;;;;;5022265;28;20422;-62
2021/06/25 05:12:31;;;;;;;5.10;4.60;;;14.60;99.90;;;;;;5020191;28;20186;-61
2021/06/25 05:14:57;;;;;;;6.80;4.90;;;14.60;99.90;;;;;;5023701;28;20942;-59
2021/06/25 05:17:25;;;;;;;5.27;4.60;;;14.60;99.90;;;;;;5023947;28;20175;-62
2021/06/25 05:19:51;;;;;;;9.00;4.70;;;14.60;99.90;;;;;;5019501;28;20167;-62
2021/06/25 05:22:16;;;;;;;6.67;5.47;;;14.60;99.90;;;;;;5022223;28;20438;-61
2021/06/25 05:24:42;;;;;;;6.10;4.77;;;14.60;99.90;;;;;;5021517;28;20917;-62
2021/06/25 05:27:08;;;;;;;9.23;4.77;;;14.70;99.90;;;;;;5020819;28;20526;-62
2021/06/25 05:29:34;;;;;;;7.30;5.17;;;14.70;99.90;;;;;;5026628;28;20559;-62
2021/06/25 05:32:00;;;;;;;11.10;5.27;;;14.70;99.90;;;;;;5020338;28;20458;-61
2021/06/25 05:34:27;;;;;;;6.67;5.40;;;14.70;99.90;;;;;;5020917;28;20176;-62
2021/06/25 05:36:53;;;;;;;5.80;5.00;;;14.70;99.90;;;;;;5020360;28;20739;-61
2021/06/25 05:39:18;;;;;;;6.50;4.90;;;14.80;99.90;;;;;;5013651;28;20478;-61
2021/06/25 05:41:44;;;;;;;5.70;4.80;;;14.80;99.90;;;;;;5019059;28;20454;-62
2021/06/25 05:44:10;;;;;;;6.17;4.67;;;14.80;99.90;;;;;;5019416;28;20251;-62
2021/06/25 05:46:35;;;;;;;5.07;4.33;;;14.80;99.90;;;;;;5024107;28;20366;-61
2021/06/25 05:49:01;;;;;;;6.23;5.07;;;14.90;99.90;;;;;;5019508;28;20261;-62
2021/06/25 05:51:27;;;;;;;5.23;4.73;;;14.90;99.90;;;;;;5021558;28;20270;-61
2021/06/25 05:53:53;;;;;;;10.60;4.87;;;14.90;99.90;;;;;;5020889;28;20672;-61
2021/06/25 05:56:18;;;;;;;6.83;4.67;;;15.00;99.90;;;;;;5023202;28;20510;-61
2021/06/25 05:58:44;;;;;;;8.47;4.97;;;15.00;99.90;;;;;;5023928;28;20204;-61
2021/06/25 06:01:10;;;;;;;4.77;4.03;;;15.10;99.90;;;;;;5015285;28;20268;-62
2021/06/25 06:03:36;;;;;;;5.13;4.63;;;15.20;99.90;;;;;;5021843;28;20215;-62
2021/06/25 06:06:02;;;;;;;7.47;4.33;;;15.20;99.90;;;;;;5023034;28;20183;-61
2021/06/25 06:08:28;;;;;;;5.40;4.30;;;15.30;99.90;;;;;;5021470;28;20196;-62
2021/06/25 06:10:54;;;;;;;6.30;3.80;;;15.30;99.90;;;;;;5022017;28;20422;-62
2021/06/25 06:13:20;;;;;;;4.60;4.10;;;15.30;99.90;;;;;;5016480;28;20863;-61
2021/06/25 06:15:45;;;;;;;5.63;4.10;;;15.30;99.90;;;;;;5020257;28;20243;-61
2021/06/25 06:18:18;;;;;;;4.83;4.27;;;15.30;99.90;;;;;;5019834;28;20191;-62
2021/06/25 06:20:44;;;;;;;5.40;4.00;;;15.30;99.90;;;;;;5011151;28;20178;-60
2021/06/25 06:31:22;;;;;;;2.63;2.30;;;15.40;99.90;;;;;;5026803;28;20421;-61
2021/06/25 06:33:56;;;;;;;2.73;2.10;;;15.40;99.90;;;;;;5028476;28;21259;-61
2021/06/25 06:36:34;;;;;;;3.40;2.10;;;15.40;99.90;;;;;;5028464;28;20476;-61
2021/06/25 06:39:04;;;;;;;4.03;3.03;;;15.40;99.90;;;;;;5028825;28;20452;-61
2021/06/25 06:41:30;;;;;;;2.47;2.27;;;15.50;99.90;;;;;;5027636;28;20419;-61
2021/06/25 06:43:57;;;;;;;3.03;2.00;;;15.50;99.90;;;;;;5026235;28;20879;-62
2021/06/25 06:46:24;;;;;;;2.30;2.10;;;15.50;99.90;;;;;;5019552;28;20811;-62
2021/06/25 06:48:50;;;;;;;2.50;2.30;;;15.50;99.90;;;;;;5027904;28;20473;-67
2021/06/25 06:51:16;;;;;;;2.90;2.60;;;15.50;99.90;;;;;;5026989;28;20423;-61
2021/06/25 06:53:43;;;;;;;3.67;3.30;;;15.50;99.90;;;;;;5024553;28;20731;-61
2021/06/25 06:56:17;;;;;;;3.30;2.97;;;15.60;99.90;;;;;;5028009;28;20419;-61
2021/06/25 06:58:45;;;;;;;3.60;2.87;;;15.60;99.90;;;;;;5027580;28;20436;-61
2021/06/25 07:01:10;;;;;;;2.80;2.53;;;15.70;99.90;;;;;;5024639;28;20946;-61
2021/06/25 07:03:36;;;;;;;2.50;2.30;;;15.70;99.90;;;;;;5018721;28;20438;-62
2021/06/25 07:06:03;;;;;;;2.20;2.00;;;15.80;99.90;;;;;;5024841;28;20185;-61
2021/06/25 07:08:29;;;;;;;3.00;2.40;;;15.80;99.90;;;;;;5023447;28;20825;-61
2021/06/25 07:10:55;;;;;;;2.70;1.70;;;15.90;99.90;;;;;;5025427;28;20450;-61
2021/06/25 07:13:21;;;;;;;3.43;2.40;;;15.90;99.90;;;;;;5023950;28;20418;-61
2021/06/25 07:15:47;;;;;;;1.97;1.83;;;15.80;99.90;;;;;;5028802;28;20445;-61
2021/06/25 07:18:12;;;;;;;1.77;1.67;;;15.90;99.90;;;;;;5029200;28;20298;-62
2021/06/25 07:20:38;;;;;;;1.80;1.70;;;15.90;99.90;;;;;;5022147;28;20318;-61
2021/06/25 07:23:04;;;;;;;1.50;1.40;;;16.00;99.90;;;;;;5028796;28;20194;-61
2021/06/25 07:25:31;;;;;;;2.30;2.10;;;16.10;99.90;;;;;;5029106;28;20664;-61
2021/06/25 07:27:57;;;;;;;2.00;1.90;;;16.10;99.90;;;;;;5026628;28;20223;-61
2021/06/25 07:30:22;;;;;;;2.10;1.90;;;16.30;99.90;;;;;;5028579;28;20939;-61
2021/06/25 07:32:48;;;;;;;2.67;2.47;;;16.40;99.90;;;;;;5030634;28;20172;-61
2021/06/25 07:35:14;;;;;;;3.17;2.10;;;16.40;99.90;;;;;;5026128;28;20186;-61
2021/06/25 07:37:40;;;;;;;2.10;1.93;;;16.50;99.90;;;;;;5020498;28;20473;-61
2021/06/25 07:40:07;;;;;;;2.03;1.93;;;16.60;99.30;;;;;;5007630;28;20227;-60
2021/06/25 07:42:33;;;;;;;2.33;2.13;;;16.60;98.70;;;;;;5022269;28;20831;-61
2021/06/25 07:44:59;;;;;;;2.97;1.97;;;16.60;99.30;;;;;;5029370;28;20398;-61
2021/06/25 07:47:25;;;;;;;1.60;1.50;;;16.70;98.60;;;;;;5019722;28;20173;-61
2021/06/25 07:49:52;;;;;;;2.13;1.93;;;16.70;97.10;;;;;;5027943;28;20431;-62
2021/06/25 07:52:19;;;;;;;2.13;1.80;;;16.60;96.80;;;;;;5027508;28;20422;-61
2021/06/25 07:54:45;;;;;;;2.30;1.90;;;16.60;96.60;;;;;;5025024;28;20192;-63
2021/06/25 07:57:10;;;;;;;2.43;2.23;;;16.60;97.30;;;;;;5022958;28;20453;-63
2021/06/25 07:59:36;;;;;;;3.30;2.17;;;16.50;98.40;;;;;;5019621;28;20235;-62
2021/06/25 08:02:02;;;;;;;5.63;2.50;;;16.60;99.30;;;;;;5026114;28;20179;-62
2021/06/25 08:04:29;;;;;;;2.67;2.47;;;16.60;97.60;;;;;;5023376;28;20172;-61
2021/06/25 08:06:55;;;;;;;2.60;2.40;;;16.60;97.10;;;;;;5013650;28;20179;-62
2021/06/25 08:09:21;;;;;;;2.73;2.53;;;16.50;96.90;;;;;;5024455;28;20461;-61
2021/06/25 08:11:47;;;;;;;2.43;2.23;;;16.50;97.30;;;;;;5025659;28;20779;-62
2021/06/25 08:14:13;;;;;;;3.40;3.10;;;16.50;97.40;;;;;;5023435;28;20709;-61
2021/06/25 08:16:38;;;;;;;4.20;2.87;;;16.40;96.70;;;;;;5023222;28;20198;-62
2021/06/25 08:19:06;;;;;;;2.90;2.30;;;16.50;97.30;;;;;;5025673;28;20199;-62
2021/06/25 08:21:32;;;;;;;3.53;3.10;;;16.40;96.70;;;;;;5028312;28;20175;-63
2021/06/25 08:23:58;;;;;;;2.80;2.50;;;16.40;97.40;;;;;;5025838;28;20442;-62
2021/06/25 08:26:24;;;;;;;2.90;2.60;;;16.40;97.20;;;;;;5023397;28;20176;-61
2021/06/25 08:28:50;;;;;;;3.70;2.93;;;16.50;97.50;;;;;;5026778;28;20226;-60
2021/06/25 08:31:15;;;;;;;4.40;3.10;;;16.70;98.50;;;;;;5023590;28;20714;-61
2021/06/25 08:33:42;;;;;;;3.17;2.87;;;16.80;98.10;;;;;;5026987;28;20505;-62
2021/06/25 08:36:09;;;;;;;3.40;3.10;;;16.90;98.30;;;;;;5027944;28;20207;-61
2021/06/25 08:38:35;;;;;;;3.60;3.30;;;17.00;98.40;;;;;;5028665;28;20965;-62
2021/06/25 08:41:01;;;;;;;3.63;3.30;;;17.10;97.80;;;;;;5021544;28;20496;-62
2021/06/25 08:43:27;;;;;;;3.30;2.80;;;17.20;97.00;;;;;;5025325;28;20909;-61
2021/06/25 08:45:53;;;;;;;3.97;3.23;;;17.20;97.00;;;;;;5026885;28;20437;-60
2021/06/25 08:48:23;;;;;;;3.60;3.30;;;17.30;96.40;;;;;;5019031;28;20469;-62
2021/06/25 08:50:55;;;;;;;3.70;3.20;;;17.40;97.20;;;;;;5029730;28;20422;-61
2021/06/25 08:53:21;;;;;;;3.33;3.03;;;17.40;97.10;;;;;;5016553;28;20431;-59
2021/06/25 08:55:46;;;;;;;6.90;3.63;;;17.50;96.50;;;;;;5029940;28;20427;-61
2021/06/25 08:58:17;;;;;;;3.53;3.17;;;17.60;96.00;;;;;;5029498;28;20200;-61
2021/06/25 09:00:43;;;;;;;3.40;3.10;;;17.70;96.30;;;;;;5029878;28;20263;-58
2021/06/25 09:03:19;;;;;;;4.10;2.93;;;17.80;94.70;;;;;;5021945;28;20515;-61
2021/06/25 09:05:45;;;;;;;5.20;3.33;;;17.90;93.20;;;;;;5028661;28;20458;-60
2021/06/25 09:08:25;;;;;;;3.70;3.40;;;18.10;92.60;;;;;;5030483;28;20501;-60
2021/06/25 09:10:53;;;;;;;4.60;3.67;;;18.20;91.10;;;;;;5025771;28;20182;-61
2021/06/25 09:13:21;;;;;;;4.50;3.93;;;18.30;92.20;;;;;;5030121;28;20505;-60
2021/06/25 09:15:48;;;;;;;4.13;3.70;;;18.40;90.80;;;;;;5029217;28;20418;-62
2021/06/25 09:18:14;;;;;;;4.10;3.63;;;18.40;87.00;;;;;;5029333;28;20460;-60
2021/06/25 09:20:50;;;;;;;5.50;4.60;;;18.20;88.40;;;;;;5028047;28;20643;-60
2021/06/25 09:23:47;;;;;;;5.57;4.00;;;18.20;90.00;;;;;;5029408;28;20190;-61
2021/06/25 09:26:13;;;;;;;5.20;4.30;;;18.10;90.40;;;;;;5024784;28;20478;-60
2021/06/25 09:28:44;;;;;;;4.77;4.10;;;18.00;91.80;;;;;;5029154;28;21269;-60
2021/06/25 09:31:17;;;;;;;6.30;4.00;;;18.10;92.80;;;;;;5027849;28;20175;-60
2021/06/25 09:33:53;;;;;;;7.47;4.20;;;18.10;92.50;;;;;;5027253;28;20461;-60
2021/06/25 09:36:21;;;;;;;4.93;3.90;;;18.00;92.00;;;;;;5029546;28;20437;-60
2021/06/25 09:38:54;;;;;;;7.07;4.83;;;18.00;91.30;;;;;;5027964;28;20473;-60
2021/06/25 09:41:21;;;;;;;5.53;4.47;;;18.00;92.60;;;;;;5017015;28;20469;-60
2021/06/25 09:44:08;;;;;;;5.60;4.67;;;18.10;92.50;;;;;;5023693;28;20430;-60
2021/06/25 09:46:42;;;;;;;4.87;4.30;;;18.10;91.70;;;;;;5027815;28;20426;-60
2021/06/25 09:49:15;;;;;;;4.70;4.20;;;18.10;91.90;;;;;;5022080;28;20831;-60
2021/06/25 09:51:55;;;;;;;8.63;4.70;;;18.10;92.40;;;;;;5026540;28;20502;-61
2021/06/25 09:54:21;;;;;;;7.77;5.10;;;18.10;90.90;;;;;;5028465;28;20465;-60
2021/06/25 10:02:21;;;;;;;6.60;4.67;;;18.00;90.70;;;;;;5023730;28;20835;-61
2021/06/25 10:04:55;;;;;;;7.23;4.80;;;18.10;91.30;;;;;;5021068;28;20445;-60
2021/06/25 10:07:30;;;;;;;6.20;4.63;;;18.20;90.10;;;;;;5024133;28;20438;-59
2021/06/25 10:09:58;;;;;;;6.37;5.20;;;18.40;90.80;;;;;;5027705;28;20583;-60
2021/06/25 10:12:25;;;;;;;5.63;5.03;;;18.70;90.60;;;;;;5023385;28;20438;-61
2021/06/25 10:14:52;;;;;;;5.60;4.50;;;18.90;87.50;;;;;;5027699;28;20784;-61
2021/06/25 10:17:18;;;;;;;7.03;5.30;;;19.00;84.80;;;;;;5027273;28;20441;-60
2021/06/25 10:19:49;;;;;;;6.13;4.33;;;19.10;85.20;;;;;;5025294;28;20454;-61
2021/06/25 10:22:18;;;;;;;8.10;4.87;;;19.10;80.00;;;;;;5020748;28;20171;-59
2021/06/25 10:24:50;;;;;;;5.20;4.70;;;18.90;81.30;;;;;;5025687;28;20431;-59
2021/06/25 10:27:21;;;;;;;5.20;4.37;;;18.80;79.10;;;;;;5010556;28;20434;-59
2021/06/25 10:29:48;;;;;;;8.10;4.90;;;18.70;78.30;;;;;;5003419;28;20552;-62
2021/06/25 10:32:16;;;;;;;6.17;4.67;;;18.80;76.60;;;;;;5017953;28;20462;-60
2021/06/25 10:34:44;;;;;;;5.10;4.13;;;19.10;79.00;;;;;;5019621;28;20431;-61
2021/06/25 10:37:19;;;;;;;4.30;3.90;;;19.20;76.20;;;;;;5016223;28;20459;-62
2021/06/25 10:39:45;;;;;;;5.53;4.20;;;19.20;74.30;;;;;;5011681;28;20913;-60
2021/06/25 10:42:11;;;;;;;6.07;4.80;;;19.10;69.60;;;;;;5018671;28;20433;-60
2021/06/25 10:44:40;;;;;;;5.97;4.53;;;19.00;70.20;;;;;;5017941;28;20816;-61
2021/06/25 10:47:24;;;;;;;6.50;4.43;;;18.90;72.20;;;;;;5009030;28;20542;-60
2021/06/25 10:49:59;;;;;;;6.20;4.67;;;18.80;74.90;;;;;;5015831;28;20549;-61
2021/06/25 10:53:01;;;;;;;5.43;4.70;;;18.80;77.40;;;;;;5013556;28;20426;-61
2021/06/25 10:55:26;;;;;;;7.47;4.27;;;18.80;80.30;;;;;;5013670;28;20453;-61
2021/06/25 10:58:06;;;;;;;6.97;4.67;;;18.90;80.70;;;;;;5011396;28;20458;-60
2021/06/25 11:00:38;;;;;;;10.80;5.00;;;19.20;80.00;;;;;;5007481;28;20179;-61
2021/06/25 11:03:03;;;;;;;6.23;4.63;;;19.40;72.20;;;;;;5012409;28;20980;-61
2021/06/25 11:05:35;;;;;;;5.63;4.40;;;19.60;79.30;;;;;;5016671;28;20489;-60
2021/06/25 11:08:21;;;;;;;6.20;4.93;;;19.90;76.80;;;;;;5019319;28;20222;-61
2021/06/25 11:10:56;;;;;;;6.80;4.90;;;20.40;75.70;;;;;;5006812;28;20456;-60
2021/06/25 11:13:27;;;;;;;7.80;5.00;;;20.70;69.30;;;;;;5010104;28;20522;-61
2021/06/25 11:15:59;;;;;;;7.13;5.40;;;20.90;69.90;;;;;;5012587;28;20880;-62
2021/06/25 11:18:26;;;;;;;7.27;5.53;;;21.20;73.30;;;;;;5011679;28;20483;-62
2021/06/25 11:20:55;;;;;;;5.80;5.23;;;21.30;73.60;;;;;;5012040;28;20437;-62
2021/06/25 11:23:42;;;;;;;8.40;5.90;;;21.10;70.80;;;;;;5005994;28;20442;-62
2021/06/25 11:26:14;;;;;;;5.60;4.60;;;20.80;70.10;;;;;;5016454;28;20430;-61
2021/06/25 11:28:41;;;;;;;8.57;4.57;;;20.40;72.00;;;;;;5017279;28;20466;-60
2021/06/25 11:31:21;;;;;;;6.77;4.67;;;20.00;71.10;;;;;;5014578;28;20953;-60
2021/06/25 11:33:54;;;;;;;8.50;5.43;;;19.60;72.70;;;;;;5015413;28;20454;-60
2021/06/25 11:36:33;;;;;;;5.07;4.57;;;19.30;76.80;;;;;;5004191;28;20566;-60
2021/06/25 11:39:09;;;;;;;5.87;5.00;;;19.00;80.10;;;;;;5015609;28;20489;-60
2021/06/25 11:41:38;;;;;;;6.30;4.60;;;18.80;79.10;;;;;;5018162;28;20456;-59
2021/06/25 11:44:11;;;;;;;6.57;4.50;;;18.60;79.10;;;;;;5015574;28;20911;-60
2021/06/25 11:46:36;;;;;;;4.40;3.97;;;18.40;81.70;;;;;;5020850;28;20442;-61
2021/06/25 11:49:04;;;;;;;9.13;4.60;;;18.20;82.60;;;;;;5018434;28;20473;-60
2021/06/25 11:51:36;;;;;;;5.77;5.10;;;18.10;83.20;;;;;;5021611;28;22284;-59
2021/06/25 11:54:04;;;;;;;6.67;5.07;;;18.00;84.10;;;;;;5021563;28;20441;-60
2021/06/25 11:56:30;;;;;;;6.50;4.80;;;17.90;84.90;;;;;;5022679;28;20969;-60
2021/06/25 11:59:22;;;;;;;5.40;4.70;;;17.90;88.20;;;;;;5024808;28;20504;-60
2021/06/25 12:01:54;;;;;;;5.83;4.63;;;17.90;88.30;;;;;;5013709;28;20450;-61
2021/06/25 12:04:36;;;;;;;7.73;5.17;;;17.90;89.20;;;;;;5014629;28;20480;-60
2021/06/25 12:07:06;;;;;;;9.40;4.20;;;17.90;89.60;;;;;;5021629;28;20516;-60
2021/06/25 12:09:47;;;;;;;6.70;4.10;;;17.90;88.90;;;;;;5022048;28;20473;-60
2021/06/25 12:12:31;;;;;;;5.60;4.70;;;17.90;90.50;;;;;;5021351;28;21378;-60
2021/06/25 12:14:59;;;;;;;8.43;4.80;;;17.90;90.00;;;;;;5021817;28;20446;-62
2021/06/25 12:17:42;;;;;;;10.40;5.13;;;18.00;88.80;;;;;;5014361;28;21083;-59
2021/06/25 12:20:11;;;;;;;4.93;4.20;;;18.00;86.80;;;;;;5021537;28;21176;-62
2021/06/25 12:23:03;;;;;;;4.73;4.33;;;18.00;87.50;;;;;;5018468;28;20437;-61
2021/06/25 12:25:34;;;;;;;6.83;4.77;;;18.20;89.90;;;;;;5013947;28;20446;-62
2021/06/25 12:28:10;;;;;;;5.00;4.50;;;18.30;89.60;;;;;;5021235;28;21006;-60
2021/06/25 12:30:36;;;;;;;6.30;4.40;;;18.40;88.70;;;;;;5021898;28;20445;-61
2021/06/25 12:33:05;;;;;;;5.20;4.40;;;18.50;87.60;;;;;;5020685;28;20442;-61
2021/06/25 12:35:36;;;;;;;5.43;4.43;;;18.70;88.50;;;;;;5020039;28;21487;-61
2021/06/25 12:38:09;;;;;;;8.73;5.07;;;18.80;90.00;;;;;;5016574;28;20450;-61
2021/06/25 12:40:43;;;;;;;7.27;4.70;;;18.90;89.20;;;;;;5011273;28;20467;-62
2021/06/25 12:43:11;;;;;;;6.97;5.70;;;19.10;88.40;;;;;;5013794;28;20430;-61
2021/06/25 12:45:51;;;;;;;9.03;4.80;;;19.20;87.10;;;;;;5018444;28;20445;-61
2021/06/25 12:48:28;;;;;;;5.63;4.70;;;19.30;88.30;;;;;;5020289;28;20472;-61
2021/06/25 12:51:31;;;;;;;5.37;4.87;;;19.40;87.00;;;;;;5022933;28;20461;-59
2021/06/25 12:53:58;;;;;;;9.10;5.27;;;19.40;86.20;;;;;;5021740;28;20636;-61
2021/06/25 12:56:31;;;;;;;7.57;5.47;;;19.40;84.90;;;;;;5024713;28;20460;-61
2021/06/25 12:59:01;;;;;;;8.03;5.00;;;19.40;82.50;;;;;;5019271;28;20612;-61
2021/06/25 13:01:37;;;;;;;7.23;4.80;;;19.40;81.30;;;;;;5015066;28;20435;-61
2021/06/25 13:04:03;;;;;;;5.67;4.90;;;19.40;83.50;;;;;;5019116;28;21196;-61
2021/06/25 13:06:34;;;;;;;6.93;4.63;;;19.50;83.10;;;;;;5018988;28;20426;-61